Time;durP1;ratioP1;P1;durP2;ratioP2;P2;SDS_P1;SDS_P2;PMS_P1;PMS_P2;Temp;Humidity;BMP_temperature;BMP_pressure;BME280_temperature;BME280_humidity;BME280_pressure;Samples;Min_cycle;Max_cycle;Signal;HPM_P1;HPM_P2
2022/11/18 00:01:23;;;;;;;24.73;16.27;;;4.30;99.90;;;;;;5000701;28;20148;-69
2022/11/18 00:03:50;;;;;;;26.58;16.38;;;4.30;99.90;;;;;;5001474;28;20042;-70
2022/11/18 00:06:21;;;;;;;26.48;15.77;;;4.30;99.90;;;;;;5000287;28;21617;-69
2022/11/18 00:08:47;;;;;;;29.13;17.70;;;4.30;99.90;;;;;;5000604;28;20034;-68
2022/11/18 00:14:19;;;;;;;26.90;16.95;;;4.20;99.90;;;;;;5002931;28;20117;-68
2022/11/18 00:16:58;;;;;;;26.67;16.50;;;4.20;99.90;;;;;;4998766;28;20445;-68
2022/11/18 00:19:26;;;;;;;31.60;18.00;;;4.20;99.90;;;;;;5000932;28;20041;-69
2022/11/18 00:21:53;;;;;;;24.45;17.20;;;4.20;99.90;;;;;;4998543;28;20516;-69
2022/11/18 00:24:20;;;;;;;25.42;15.75;;;4.20;99.90;;;;;;5000402;28;20063;-68
2022/11/18 00:26:46;;;;;;;25.55;15.88;;;4.20;99.90;;;;;;4998627;28;20061;-69
2022/11/18 00:29:12;;;;;;;26.08;15.23;;;4.20;99.90;;;;;;4998236;28;20037;-69
2022/11/18 00:31:39;;;;;;;27.63;17.02;;;4.20;99.90;;;;;;4998041;28;20863;-69
2022/11/18 00:34:05;;;;;;;26.55;17.50;;;4.20;99.90;;;;;;5000540;28;20073;-69
2022/11/18 00:36:31;;;;;;;25.45;15.43;;;4.20;99.90;;;;;;4997127;28;20040;-69
2022/11/18 00:38:57;;;;;;;25.75;15.90;;;4.20;99.90;;;;;;4999974;28;20068;-69
2022/11/18 00:41:23;;;;;;;27.83;16.73;;;4.10;99.90;;;;;;4998179;28;20120;-69
2022/11/18 00:43:48;;;;;;;24.10;14.40;;;4.20;99.90;;;;;;4998622;28;20108;-69
2022/11/18 00:46:14;;;;;;;24.42;15.48;;;4.20;99.90;;;;;;4998503;28;20037;-69
2022/11/18 00:48:40;;;;;;;26.02;16.92;;;4.20;99.90;;;;;;4999553;28;20030;-68
2022/11/18 00:51:17;;;;;;;24.40;16.35;;;4.10;99.90;;;;;;5000643;28;20040;-68
2022/11/18 00:53:43;;;;;;;24.65;16.42;;;4.10;99.90;;;;;;4998997;28;20120;-68
2022/11/18 00:56:09;;;;;;;24.02;15.95;;;4.10;99.90;;;;;;4999148;28;20573;-68
2022/11/18 00:58:35;;;;;;;24.45;15.63;;;4.20;99.90;;;;;;5002605;28;20121;-68
2022/11/18 01:01:02;;;;;;;22.08;15.30;;;4.10;99.90;;;;;;5001081;28;20095;-68
2022/11/18 01:03:29;;;;;;;21.35;13.75;;;4.00;99.90;;;;;;4999659;28;20041;-68
2022/11/18 01:05:55;;;;;;;25.63;15.60;;;4.10;99.90;;;;;;4996690;28;20040;-69
2022/11/18 01:08:21;;;;;;;22.98;14.90;;;4.10;99.90;;;;;;5002063;28;20033;-67
2022/11/18 01:10:48;;;;;;;23.83;14.23;;;4.00;99.90;;;;;;4998464;28;20029;-68
2022/11/18 01:13:19;;;;;;;23.77;15.38;;;4.00;99.90;;;;;;4999571;28;20030;-67
2022/11/18 01:15:45;;;;;;;21.92;14.40;;;4.00;99.90;;;;;;4999622;28;20057;-69
2022/11/18 01:18:11;;;;;;;22.17;14.68;;;4.00;99.90;;;;;;5004422;28;20052;-69
2022/11/18 01:20:37;;;;;;;24.67;16.67;;;4.00;99.90;;;;;;4998341;28;20029;-70
2022/11/18 01:23:03;;;;;;;23.65;15.10;;;4.00;99.90;;;;;;4999425;28;20057;-69
2022/11/18 01:25:29;;;;;;;23.25;14.80;;;4.00;99.90;;;;;;4999703;28;20038;-71
2022/11/18 01:27:55;;;;;;;27.08;16.10;;;4.00;99.90;;;;;;4999032;28;20144;-69
2022/11/18 01:30:20;;;;;;;21.08;14.63;;;3.90;99.80;;;;;;4999027;28;20036;-69
2022/11/18 01:32:46;;;;;;;21.27;14.85;;;3.80;99.80;;;;;;4999680;28;20033;-69
2022/11/18 01:35:13;;;;;;;26.42;17.00;;;3.80;99.80;;;;;;4999458;28;20042;-69
2022/11/18 01:37:39;;;;;;;24.80;15.50;;;3.70;99.80;;;;;;4998084;28;20037;-69
2022/11/18 01:40:07;;;;;;;20.85;14.00;;;3.70;99.80;;;;;;4996847;28;20056;-72
2022/11/18 01:42:35;;;;;;;20.83;14.63;;;3.70;99.80;;;;;;4999357;28;20029;-69
2022/11/18 01:45:18;;;;;;;21.20;14.00;;;3.70;99.70;;;;;;4999428;28;20045;-69
2022/11/18 01:47:50;;;;;;;21.00;14.00;;;3.70;99.70;;;;;;4998880;28;20026;-70
2022/11/18 01:50:19;;;;;;;20.30;13.90;;;3.70;99.70;;;;;;4998720;28;20030;-70
2022/11/18 01:52:46;;;;;;;24.10;15.25;;;3.70;99.70;;;;;;5000067;28;20033;-70
2022/11/18 01:55:24;;;;;;;23.88;15.27;;;3.70;99.70;;;;;;4998842;28;20129;-70
2022/11/18 01:57:59;;;;;;;20.92;14.57;;;3.70;99.60;;;;;;5001380;28;20100;-70
2022/11/18 02:00:25;;;;;;;21.52;14.02;;;3.60;99.60;;;;;;4998485;28;20030;-70
2022/11/18 02:02:51;;;;;;;20.90;13.00;;;3.60;99.60;;;;;;4997450;28;20037;-70
2022/11/18 02:05:17;;;;;;;23.63;13.85;;;3.60;99.60;;;;;;5000262;28;20489;-70
2022/11/18 02:07:43;;;;;;;22.13;14.68;;;3.60;99.60;;;;;;4999222;28;20132;-70
2022/11/18 02:10:19;;;;;;;20.52;14.73;;;3.70;99.60;;;;;;4998343;28;20042;-71
2022/11/18 02:12:45;;;;;;;24.52;16.30;;;3.60;99.60;;;;;;5003541;28;20643;-70
2022/11/18 02:15:11;;;;;;;21.60;15.18;;;3.60;99.50;;;;;;4997486;28;20026;-71
2022/11/18 02:17:43;;;;;;;21.50;15.05;;;3.60;99.50;;;;;;4999508;28;20044;-70
2022/11/18 02:20:09;;;;;;;21.92;14.38;;;3.60;99.50;;;;;;4997750;28;20022;-71
2022/11/18 02:23:00;;;;;;;23.35;14.77;;;3.60;99.50;;;;;;4997955;28;20030;-70
2022/11/18 02:25:33;;;;;;;23.00;14.93;;;3.60;99.50;;;;;;4998524;28;20053;-70
2022/11/18 02:28:14;;;;;;;23.00;15.00;;;3.60;99.40;;;;;;4998603;28;20065;-70
2022/11/18 02:31:02;;;;;;;26.38;17.77;;;3.60;99.40;;;;;;4999438;28;20037;-70
2022/11/18 02:33:39;;;;;;;23.98;15.57;;;3.50;99.30;;;;;;4997679;28;20029;-70
2022/11/18 02:36:31;;;;;;;20.70;13.73;;;3.50;99.40;;;;;;4998819;28;20038;-69
2022/11/18 02:39:04;;;;;;;22.50;13.82;;;3.60;99.50;;;;;;4998092;28;20038;-70
2022/11/18 02:41:32;;;;;;;25.10;16.23;;;3.50;99.40;;;;;;4999670;28;20026;-70
2022/11/18 02:44:14;;;;;;;22.95;15.05;;;3.60;99.30;;;;;;4996179;28;20894;-69
2022/11/18 02:46:43;;;;;;;20.60;13.32;;;3.50;99.30;;;;;;5000389;28;20068;-70
2022/11/18 02:49:18;;;;;;;20.95;14.27;;;3.50;99.20;;;;;;4998981;28;20040;-69
2022/11/18 02:51:45;;;;;;;21.67;14.75;;;3.40;99.30;;;;;;4990304;28;20038;-70
2022/11/18 02:54:12;;;;;;;22.60;15.43;;;3.40;99.30;;;;;;4996400;28;20030;-69
2022/11/18 02:56:38;;;;;;;25.35;15.90;;;3.40;99.30;;;;;;5000944;28;20099;-70
2022/11/18 02:59:04;;;;;;;21.92;14.52;;;3.40;99.40;;;;;;5000415;28;20517;-69
2022/11/18 03:01:33;;;;;;;22.20;15.65;;;3.50;99.40;;;;;;5001510;28;20041;-70
2022/11/18 03:03:59;;;;;;;23.65;14.57;;;3.50;99.30;;;;;;5001414;28;20599;-69
2022/11/18 03:06:34;;;;;;;20.70;13.63;;;3.50;99.30;;;;;;4999115;28;20045;-69
2022/11/18 03:09:10;;;;;;;;;;;3.50;99.30;;;;;;5002952;28;20036;-69
2022/11/18 03:11:48;;;;;;;20.83;14.45;;;3.60;99.30;;;;;;5002452;28;19913;-70
2022/11/18 03:14:23;;;;;;;26.73;14.95;;;3.50;99.20;;;;;;5000666;28;20033;-70
2022/11/18 03:17:22;;;;;;;23.95;15.38;;;3.50;99.20;;;;;;5002431;28;20040;-69
2022/11/18 03:20:09;;;;;;;25.73;16.58;;;3.40;99.30;;;;;;5004332;28;20058;-69
2022/11/18 03:22:41;;;;;;;25.40;16.35;;;3.40;99.30;;;;;;5002430;28;20038;-69
2022/11/18 03:25:28;;;;;;;26.23;17.00;;;3.30;99.30;;;;;;5000322;28;20041;-69
2022/11/18 03:28:20;;;;;;;24.48;15.18;;;3.30;99.40;;;;;;5001501;28;20029;-69
2022/11/18 03:31:00;;;;;;;25.23;16.27;;;3.30;99.40;;;;;;5000490;28;20037;-70
2022/11/18 03:33:33;;;;;;;23.15;15.63;;;3.30;99.70;;;;;;5002013;28;20030;-70
2022/11/18 03:36:02;;;;;;;23.90;16.45;;;3.20;99.60;;;;;;4999814;28;20504;-70
2022/11/18 03:38:32;;;;;;;25.25;16.48;;;3.20;99.50;;;;;;5001563;28;20030;-69
2022/11/18 03:41:03;;;;;;;24.42;16.55;;;3.20;99.60;;;;;;5001222;28;20084;-69
2022/11/18 03:43:35;;;;;;;26.83;16.02;;;3.20;99.70;;;;;;5001092;28;20030;-70
2022/11/18 03:46:09;;;;;;;28.35;17.30;;;3.20;99.70;;;;;;4999835;28;20096;-70
2022/11/18 03:48:39;;;;;;;26.75;16.77;;;3.10;99.80;;;;;;5003263;28;20091;-70
2022/11/18 03:51:08;;;;;;;27.23;18.88;;;3.10;99.80;;;;;;5001053;28;20042;-69
2022/11/18 03:53:43;;;;;;;25.83;16.88;;;3.10;99.80;;;;;;5001603;28;20151;-70
2022/11/18 03:56:21;;;;;;;25.25;16.52;;;3.00;99.90;;;;;;5001390;28;20444;-69
2022/11/18 03:58:59;;;;;;;28.42;18.67;;;3.00;99.90;;;;;;5000779;28;20042;-69
2022/11/18 04:01:32;;;;;;;26.58;17.95;;;3.00;99.90;;;;;;5001664;28;20029;-69
2022/11/18 04:03:58;;;;;;;25.98;17.55;;;3.00;99.90;;;;;;5001800;28;20061;-69
2022/11/18 04:06:57;;;;;;;26.48;15.75;;;2.90;99.90;;;;;;5000387;28;20034;-69
2022/11/18 04:09:28;;;;;;;26.65;16.35;;;2.90;99.90;;;;;;5000989;28;20021;-70
2022/11/18 04:12:05;;;;;;;29.88;18.25;;;2.90;99.90;;;;;;4999251;28;20194;-69
2022/11/18 04:14:38;;;;;;;31.98;16.95;;;2.90;99.90;;;;;;5000552;28;20033;-69
2022/11/18 04:17:08;;;;;;;26.65;17.45;;;2.90;99.90;;;;;;4999564;28;20504;-70
2022/11/18 04:19:34;;;;;;;28.70;16.90;;;2.90;99.90;;;;;;5005512;28;20104;-70
2022/11/18 04:22:00;;;;;;;28.98;17.52;;;2.80;99.90;;;;;;4999488;28;20033;-70
2022/11/18 04:24:26;;;;;;;31.63;19.40;;;2.80;99.90;;;;;;5000800;28;20049;-70
2022/11/18 04:26:51;;;;;;;29.48;17.75;;;2.80;99.90;;;;;;5000572;28;20025;-70
2022/11/18 04:29:17;;;;;;;26.83;18.02;;;2.80;99.90;;;;;;5001318;28;20179;-70
2022/11/18 04:31:43;;;;;;;30.83;18.15;;;2.80;99.90;;;;;;4999708;28;20674;-70
2022/11/18 04:34:09;;;;;;;29.42;17.98;;;2.80;99.90;;;;;;5001423;28;20022;-69
2022/11/18 04:36:35;;;;;;;27.10;18.30;;;2.70;99.90;;;;;;4999737;28;20069;-70
2022/11/18 04:39:01;;;;;;;32.97;19.88;;;2.70;99.90;;;;;;5000250;28;20030;-70
2022/11/18 04:41:54;;;;;;;30.67;18.63;;;2.70;99.90;;;;;;4999623;28;20061;-70
2022/11/18 04:44:12;;;;;;;31.08;18.08;;;2.60;99.90;;;;;;5000245;28;20049;-70
2022/11/18 04:46:39;;;;;;;29.45;17.42;;;2.60;99.90;;;;;;5000176;28;20414;-70
2022/11/18 04:49:06;;;;;;;32.15;19.13;;;2.70;99.90;;;;;;5000389;28;20056;-70
2022/11/18 04:51:31;;;;;;;32.60;19.98;;;2.60;99.90;;;;;;5000308;28;20032;-70
2022/11/18 04:53:57;;;;;;;32.30;18.70;;;2.60;99.90;;;;;;5000088;28;21031;-70
2022/11/18 04:56:24;;;;;;;33.17;20.23;;;2.70;99.90;;;;;;4999193;28;20049;-69
2022/11/18 04:58:49;;;;;;;35.33;21.42;;;2.60;99.90;;;;;;4998486;28;20136;-69
2022/11/18 05:01:15;;;;;;;31.98;18.50;;;2.60;99.90;;;;;;4999294;28;20675;-70
2022/11/18 05:03:41;;;;;;;40.45;21.70;;;2.70;99.90;;;;;;5000125;28;20034;-69
2022/11/18 05:06:06;;;;;;;34.55;20.90;;;2.70;99.90;;;;;;4999455;28;20118;-69
2022/11/18 05:08:32;;;;;;;36.30;20.92;;;2.70;99.90;;;;;;4999918;28;20054;-69
2022/11/18 05:12:47;;;;;;;34.75;21.13;;;2.60;99.90;;;;;;4998931;28;20072;-69
2022/11/18 05:13:45;;;;;;;32.65;19.90;;;2.60;99.90;;;;;;5000495;28;20029;-69
2022/11/18 05:16:10;;;;;;;34.83;20.55;;;2.70;99.90;;;;;;4998357;28;20030;-69
2022/11/18 05:18:37;;;;;;;32.53;19.88;;;2.70;99.90;;;;;;4997869;28;20037;-69
2022/11/18 05:21:06;;;;;;;36.35;22.42;;;2.70;99.90;;;;;;5000309;28;20038;-69
2022/11/18 05:23:31;;;;;;;32.70;19.60;;;2.70;99.90;;;;;;4998970;28;20022;-68
2022/11/18 05:26:01;;;;;;;33.70;20.65;;;2.70;99.90;;;;;;4998081;28;20956;-69
2022/11/18 05:28:27;;;;;;;36.60;22.20;;;2.60;99.90;;;;;;4999156;28;20061;-69
2022/11/18 05:30:52;;;;;;;40.13;23.52;;;2.60;99.90;;;;;;4996328;28;20557;-68
2022/11/18 05:33:18;;;;;;;40.97;22.73;;;2.60;99.90;;;;;;4999128;28;20039;-69
2022/11/18 05:35:44;;;;;;;35.20;21.00;;;2.60;99.90;;;;;;4998548;28;20032;-68
2022/11/18 05:38:10;;;;;;;36.15;20.92;;;2.50;99.90;;;;;;4999089;28;20021;-68
2022/11/18 05:40:35;;;;;;;31.60;19.13;;;2.50;99.90;;;;;;4998477;28;20030;-69
2022/11/18 05:43:10;;;;;;;36.67;21.08;;;2.40;99.90;;;;;;4998251;28;20034;-69
2022/11/18 05:45:38;;;;;;;38.60;21.50;;;2.40;99.90;;;;;;4997919;28;22186;-68
2022/11/18 05:48:05;;;;;;;37.10;20.90;;;2.40;99.90;;;;;;5000317;28;20406;-69
2022/11/18 05:50:33;;;;;;;36.08;21.27;;;2.30;99.90;;;;;;5005863;28;20041;-68
2022/11/18 05:52:59;;;;;;;36.28;20.55;;;2.30;99.90;;;;;;4997760;28;20027;-68
2022/11/18 05:55:37;;;;;;;38.08;20.75;;;2.40;99.90;;;;;;4998629;28;21969;-70
2022/11/18 05:58:03;;;;;;;35.35;20.00;;;2.30;99.90;;;;;;4999392;28;20907;-70
2022/11/18 06:00:29;;;;;;;32.40;19.95;;;2.30;99.90;;;;;;4998874;28;20026;-69
2022/11/18 06:02:56;;;;;;;32.20;18.67;;;2.30;99.90;;;;;;4999536;28;20034;-69
2022/11/18 06:05:25;;;;;;;33.47;19.73;;;2.30;99.90;;;;;;4998005;28;20147;-68
2022/11/18 06:07:54;;;;;;;32.70;18.90;;;2.30;99.90;;;;;;4999186;28;20481;-68
2022/11/18 06:10:24;;;;;;;34.42;18.73;;;2.40;99.90;;;;;;5003013;28;20041;-69
2022/11/18 06:12:53;;;;;;;33.00;18.42;;;2.30;99.90;;;;;;4999008;28;20038;-67
2022/11/18 06:15:27;;;;;;;29.65;17.92;;;2.30;99.90;;;;;;4999082;28;20026;-69
2022/11/18 06:17:58;;;;;;;29.08;17.02;;;2.30;99.90;;;;;;4997368;28;22214;-68
2022/11/18 06:20:25;;;;;;;29.10;17.20;;;2.20;99.90;;;;;;4999330;28;20037;-69
2022/11/18 06:22:54;;;;;;;26.90;16.02;;;2.30;99.90;;;;;;4997301;28;20034;-69
2022/11/18 06:25:21;;;;;;;30.30;18.92;;;2.30;99.90;;;;;;4998540;28;20114;-68
2022/11/18 06:27:49;;;;;;;25.92;16.60;;;2.30;99.90;;;;;;4999833;28;20038;-68
2022/11/18 06:30:15;;;;;;;26.55;17.75;;;2.30;99.50;;;;;;4998173;28;20037;-69
2022/11/18 06:32:41;;;;;;;27.73;16.15;;;2.20;99.60;;;;;;5002699;28;20029;-68
2022/11/18 06:35:08;;;;;;;27.63;16.73;;;2.30;99.60;;;;;;5001492;28;20527;-68
2022/11/18 06:37:34;;;;;;;27.50;16.50;;;2.30;99.60;;;;;;4998072;28;20489;-69
2022/11/18 06:39:59;;;;;;;29.00;18.20;;;2.30;99.30;;;;;;4999836;28;20041;-68
2022/11/18 06:45:12;;;;;;;25.05;16.30;;;2.30;99.20;;;;;;5001815;28;20101;-68
2022/11/18 06:47:38;;;;;;;26.00;16.02;;;2.30;99.00;;;;;;5005962;28;20034;-68
2022/11/18 06:50:05;;;;;;;28.25;16.80;;;2.20;98.70;;;;;;5001094;28;20037;-68
2022/11/18 06:52:30;;;;;;;28.58;16.92;;;2.20;98.70;;;;;;5000583;28;20768;-68
2022/11/18 06:54:56;;;;;;;24.85;15.10;;;2.20;98.80;;;;;;5001235;28;20153;-69
2022/11/18 06:57:22;;;;;;;28.33;16.00;;;2.10;98.80;;;;;;4999604;28;20038;-69
2022/11/18 06:59:47;;;;;;;26.05;14.90;;;2.10;98.70;;;;;;5002792;28;20472;-69
2022/11/18 07:02:13;;;;;;;27.05;15.40;;;2.10;98.70;;;;;;5001528;28;20026;-68
2022/11/18 07:04:40;;;;;;;24.40;15.82;;;2.10;98.60;;;;;;5000676;28;20037;-69
2022/11/18 07:07:06;;;;;;;24.95;15.27;;;2.10;98.60;;;;;;5000892;28;20034;-68
2022/11/18 07:09:34;;;;;;;25.50;14.88;;;2.10;98.50;;;;;;5001916;28;20117;-68
2022/11/18 07:12:00;;;;;;;25.55;16.80;;;2.10;98.50;;;;;;5000978;28;20038;-71
2022/11/18 07:14:26;;;;;;;26.35;16.65;;;2.00;98.50;;;;;;5006424;28;20065;-68
2022/11/18 07:16:52;;;;;;;27.10;15.18;;;2.00;98.40;;;;;;5002386;28;20030;-68
2022/11/18 07:19:17;;;;;;;24.98;15.90;;;2.00;98.20;;;;;;4998442;28;20041;-68
2022/11/18 07:21:43;;;;;;;29.45;16.33;;;2.00;98.00;;;;;;5002737;28;20618;-69
2022/11/18 07:24:13;;;;;;;28.90;16.88;;;1.90;97.90;;;;;;5000042;28;20042;-68
2022/11/18 07:26:41;;;;;;;26.13;15.38;;;1.90;97.90;;;;;;5001407;28;20034;-70
2022/11/18 07:29:07;;;;;;;27.17;16.17;;;1.90;98.00;;;;;;5000733;28;20109;-67
2022/11/18 07:31:36;;;;;;;26.05;16.15;;;1.90;98.10;;;;;;5000352;28;20041;-70
2022/11/18 07:34:02;;;;;;;27.30;14.98;;;1.90;98.20;;;;;;5000786;28;20033;-70
2022/11/18 07:36:29;;;;;;;24.20;14.57;;;2.00;98.20;;;;;;4999984;28;20038;-70
2022/11/18 07:38:59;;;;;;;27.77;16.95;;;2.00;98.10;;;;;;5001351;28;20034;-71
2022/11/18 07:41:28;;;;;;;27.23;16.33;;;2.00;98.10;;;;;;5002387;28;20549;-70
2022/11/18 07:43:54;;;;;;;27.85;15.85;;;2.00;98.00;;;;;;5000754;28;20041;-71
2022/11/18 07:46:24;;;;;;;29.63;15.93;;;2.00;97.90;;;;;;5001210;28;20029;-70
2022/11/18 07:48:53;;;;;;;26.92;15.82;;;2.00;98.00;;;;;;5004049;28;20493;-70
2022/11/18 07:51:21;;;;;;;29.55;17.27;;;2.00;98.00;;;;;;5001332;28;20033;-70
2022/11/18 07:53:47;;;;;;;22.65;14.45;;;2.10;97.90;;;;;;4998858;28;20066;-70
2022/11/18 07:56:13;;;;;;;28.52;16.30;;;2.10;98.20;;;;;;5000679;28;20082;-70
2022/11/18 07:58:40;;;;;;;26.20;16.30;;;2.10;97.70;;;;;;5001032;28;20035;-70
2022/11/18 08:01:20;;;;;;;25.90;16.15;;;2.10;97.50;;;;;;4990694;28;20041;-69
2022/11/18 08:03:46;;;;;;;27.92;17.00;;;2.10;97.60;;;;;;5001590;28;20546;-71
2022/11/18 08:06:14;;;;;;;29.20;16.92;;;2.10;97.50;;;;;;5000398;28;20096;-70
2022/11/18 08:08:41;;;;;;;29.48;17.25;;;2.10;97.50;;;;;;5000217;28;20034;-68
2022/11/18 08:11:10;;;;;;;24.20;16.13;;;2.10;97.50;;;;;;4999223;28;20029;-67
2022/11/18 08:13:36;;;;;;;27.60;15.93;;;2.20;97.50;;;;;;5000880;28;20033;-67
2022/11/18 08:16:03;;;;;;;29.73;18.25;;;2.20;97.50;;;;;;5001219;28;20026;-68
2022/11/18 08:18:30;;;;;;;27.27;15.73;;;2.20;97.30;;;;;;5002621;28;20030;-67
2022/11/18 08:21:03;;;;;;;24.98;15.65;;;2.20;97.50;;;;;;4999769;28;20022;-67
2022/11/18 08:23:31;;;;;;;29.63;16.88;;;2.30;97.30;;;;;;4999157;28;20033;-67
2022/11/18 08:26:07;;;;;;;23.35;14.10;;;2.30;97.00;;;;;;4999994;28;20041;-67
2022/11/18 08:28:33;;;;;;;26.63;16.50;;;2.20;97.00;;;;;;4999658;28;20679;-66
2022/11/18 08:31:00;;;;;;;23.65;13.77;;;2.20;96.70;;;;;;5004352;28;20029;-66
2022/11/18 08:33:25;;;;;;;26.67;15.63;;;2.10;96.80;;;;;;4999054;28;20022;-66
2022/11/18 08:35:51;;;;;;;24.05;15.57;;;2.10;96.90;;;;;;4998550;28;20034;-66
2022/11/18 08:38:17;;;;;;;24.17;15.32;;;2.10;97.00;;;;;;5001356;28;20057;-66
2022/11/18 08:40:46;;;;;;;24.05;15.27;;;2.20;97.00;;;;;;4997711;28;20041;-66
2022/11/18 08:43:13;;;;;;;21.73;14.57;;;2.20;96.90;;;;;;4998124;28;20038;-66
2022/11/18 08:45:39;;;;;;;25.05;15.13;;;2.20;96.60;;;;;;5014582;28;20054;-66
2022/11/18 08:48:05;;;;;;;24.85;14.73;;;2.10;96.50;;;;;;5002756;28;20552;-66
2022/11/18 08:50:31;;;;;;;24.40;15.07;;;2.00;96.70;;;;;;4998220;28;20026;-66
2022/11/18 08:52:56;;;;;;;26.85;17.70;;;2.00;96.60;;;;;;4997271;28;20452;-68
2022/11/18 08:55:22;;;;;;;26.35;15.80;;;2.00;96.40;;;;;;4999724;28;20030;-65
2022/11/18 08:57:48;;;;;;;22.35;15.68;;;2.00;96.50;;;;;;4999670;28;20387;-65
2022/11/18 09:00:14;;;;;;;24.38;14.70;;;1.90;96.50;;;;;;4998819;28;20026;-66
2022/11/18 09:02:40;;;;;;;24.88;14.30;;;1.90;96.60;;;;;;4998545;28;20112;-67
2022/11/18 09:05:09;;;;;;;23.00;14.27;;;1.90;96.50;;;;;;4996483;28;20046;-66
2022/11/18 09:07:34;;;;;;;25.30;16.52;;;1.80;96.40;;;;;;4999682;28;20049;-67
2022/11/18 09:10:00;;;;;;;22.80;15.02;;;1.80;96.40;;;;;;4998095;28;20038;-67
2022/11/18 09:12:27;;;;;;;22.23;15.15;;;1.70;96.30;;;;;;4998429;28;20021;-67
2022/11/18 09:14:53;;;;;;;24.08;14.95;;;1.70;96.40;;;;;;4996916;28;20061;-67
2022/11/18 09:17:18;;;;;;;24.42;15.45;;;1.70;96.50;;;;;;5004234;28;20507;-67
2022/11/18 09:19:44;;;;;;;22.50;15.05;;;1.70;96.50;;;;;;4998650;28;20065;-67
2022/11/18 09:22:10;;;;;;;21.17;14.00;;;1.70;96.60;;;;;;4999468;28;20040;-67
2022/11/18 09:24:36;;;;;;;22.85;15.27;;;1.70;96.60;;;;;;4996499;28;20033;-67
2022/11/18 09:27:04;;;;;;;23.00;14.15;;;1.70;96.70;;;;;;4998639;28;20044;-67
2022/11/18 09:29:30;;;;;;;23.90;14.90;;;1.80;96.80;;;;;;4998064;28;20038;-67
2022/11/18 09:31:56;;;;;;;24.63;15.60;;;1.70;96.60;;;;;;4998197;28;20033;-67
2022/11/18 09:34:22;;;;;;;27.25;15.20;;;1.70;96.70;;;;;;4997727;28;20099;-67
2022/11/18 09:36:48;;;;;;;20.20;13.02;;;1.80;96.70;;;;;;4998448;28;20041;-69
2022/11/18 09:39:14;;;;;;;21.73;13.95;;;1.80;96.70;;;;;;5000068;28;20084;-67
2022/11/18 09:41:46;;;;;;;23.15;11.88;;;1.70;96.60;;;;;;4999927;28;20624;-67
2022/11/18 09:44:34;;;;;;;20.55;12.00;;;1.80;96.70;;;;;;4999144;28;20069;-68
2022/11/18 09:46:59;;;;;;;18.98;11.48;;;1.80;96.70;;;;;;4991449;28;20108;-68
2022/11/18 09:49:37;;;;;;;17.25;11.25;;;1.80;96.80;;;;;;4997842;28;20058;-69
2022/11/18 09:52:10;;;;;;;19.08;11.02;;;1.90;96.80;;;;;;5000114;28;20407;-68
2022/11/18 09:54:38;;;;;;;18.23;11.75;;;1.90;96.60;;;;;;4997937;28;20022;-69
2022/11/18 09:57:16;;;;;;;19.30;11.43;;;1.80;96.40;;;;;;5000044;28;20520;-68
2022/11/18 09:59:43;;;;;;;16.20;10.88;;;1.80;96.50;;;;;;5000117;28;20034;-68
2022/11/18 10:02:38;;;;;;;17.23;10.82;;;1.80;96.60;;;;;;5005186;28;20030;-68
2022/11/18 10:05:24;;;;;;;15.73;10.93;;;1.80;96.60;;;;;;5012833;28;20053;-70
2022/11/18 10:08:16;;;;;;;14.02;9.93;;;1.90;96.70;;;;;;5004459;28;20042;-70
2022/11/18 10:11:06;;;;;;;15.00;10.38;;;1.90;96.70;;;;;;5012526;28;20238;-68
2022/11/18 10:13:55;;;;;;;13.80;8.82;;;1.90;96.60;;;;;;5011686;28;20073;-68
2022/11/18 10:16:46;;;;;;;12.90;8.77;;;1.90;96.60;;;;;;5014610;28;20037;-68
2022/11/18 10:19:27;;;;;;;13.18;8.77;;;1.80;96.40;;;;;;5013953;28;20355;-69
2022/11/18 10:22:02;;;;;;;12.15;8.38;;;1.80;96.30;;;;;;5013826;28;20044;-69
2022/11/18 10:24:34;;;;;;;12.52;8.55;;;1.70;96.50;;;;;;5009891;28;20034;-69
2022/11/18 10:27:01;;;;;;;11.00;7.75;;;1.70;96.50;;;;;;5014622;28;20056;-69
2022/11/18 10:29:27;;;;;;;13.32;8.77;;;1.70;96.50;;;;;;5013274;28;20088;-69
2022/11/18 10:32:01;;;;;;;13.48;8.50;;;1.70;96.30;;;;;;5013439;28;20370;-69
2022/11/18 10:34:27;;;;;;;12.43;8.57;;;1.70;96.50;;;;;;5010829;28;20022;-69
2022/11/18 10:37:32;;;;;;;11.35;7.80;;;1.70;96.50;;;;;;5014883;28;20034;-70
2022/11/18 10:40:00;;;;;;;12.85;7.72;;;1.80;96.70;;;;;;5007441;28;20034;-70
2022/11/18 10:42:39;;;;;;;12.20;8.20;;;1.80;96.60;;;;;;5014582;28;20029;-70
2022/11/18 10:45:19;;;;;;;11.35;7.20;;;1.80;96.30;;;;;;5012958;28;20079;-69
2022/11/18 10:47:56;;;;;;;12.40;7.95;;;1.80;96.30;;;;;;4997808;28;20034;-71
2022/11/18 10:50:40;;;;;;;11.48;7.00;;;1.70;96.20;;;;;;5011614;28;20030;-70
2022/11/18 10:53:30;;;;;;;11.02;7.68;;;1.80;96.30;;;;;;5010091;28;20035;-70
2022/11/18 10:55:59;;;;;;;9.75;6.97;;;1.80;96.20;;;;;;5005979;28;20029;-70
2022/11/18 10:58:26;;;;;;;11.93;7.40;;;1.70;96.20;;;;;;5013921;28;20065;-70
2022/11/18 11:00:51;;;;;;;9.90;6.80;;;1.80;96.30;;;;;;5014083;28;20049;-69
2022/11/18 11:03:24;;;;;;;12.25;7.95;;;1.80;96.40;;;;;;5013373;28;20485;-70
2022/11/18 11:06:32;;;;;;;11.32;7.35;;;1.90;96.40;;;;;;5014185;28;20040;-70
2022/11/18 11:09:28;;;;;;;12.35;7.57;;;1.90;96.30;;;;;;5011492;28;20385;-68
2022/11/18 11:11:55;;;;;;;13.98;8.85;;;1.90;96.30;;;;;;4999855;28;20038;-70
2022/11/18 11:14:49;;;;;;;11.45;8.02;;;1.90;96.30;;;;;;5012269;28;20461;-70
2022/11/18 11:17:28;;;;;;;11.52;8.05;;;1.90;96.20;;;;;;5005196;28;20801;-71
2022/11/18 11:20:22;;;;;;;12.57;8.32;;;2.00;96.30;;;;;;5001627;28;20350;-69
2022/11/18 11:22:50;;;;;;;12.38;8.32;;;2.00;96.30;;;;;;5001597;28;20072;-70
2022/11/18 11:25:21;;;;;;;12.32;8.18;;;2.00;96.20;;;;;;5002729;28;20382;-70
2022/11/18 11:28:07;;;;;;;12.05;8.10;;;2.10;96.30;;;;;;4998319;28;20553;-70
2022/11/18 11:30:39;;;;;;;12.50;8.35;;;2.10;96.30;;;;;;5003024;28;20447;-69
2022/11/18 11:33:18;;;;;;;10.63;7.47;;;2.10;96.30;;;;;;4999486;28;20536;-70
2022/11/18 11:36:02;;;;;;;12.68;8.05;;;2.10;96.30;;;;;;5001153;28;20501;-70
2022/11/18 11:39:05;;;;;;;12.45;7.95;;;2.20;96.40;;;;;;5003226;28;20034;-70
2022/11/18 11:42:05;;;;;;;14.05;8.27;;;2.20;96.40;;;;;;5002522;28;20501;-70
2022/11/18 11:44:36;;;;;;;14.70;9.07;;;2.30;96.40;;;;;;5001382;28;20053;-69
2022/11/18 11:47:48;;;;;;;13.23;8.88;;;2.30;96.30;;;;;;5002194;28;20489;-70
2022/11/18 11:50:28;;;;;;;12.30;8.15;;;2.30;96.20;;;;;;5001995;28;20128;-70
2022/11/18 11:53:12;;;;;;;12.88;7.93;;;2.30;96.30;;;;;;5000328;28;20477;-69
2022/11/18 11:56:16;;;;;;;13.02;8.27;;;2.40;96.20;;;;;;5001740;28;20021;-69
2022/11/18 11:59:05;;;;;;;11.70;8.00;;;2.40;96.20;;;;;;5001709;28;20378;-68
2022/11/18 12:01:55;;;;;;;14.15;9.02;;;2.40;96.00;;;;;;5001034;28;20093;-69
2022/11/18 12:04:24;;;;;;;12.63;8.50;;;2.30;95.90;;;;;;4999310;28;20482;-69
2022/11/18 12:06:52;;;;;;;14.70;9.07;;;2.30;95.70;;;;;;5000446;28;20087;-68
2022/11/18 12:09:31;;;;;;;11.65;8.18;;;2.30;95.70;;;;;;5000592;28;20025;-68
2022/11/18 12:12:36;;;;;;;13.48;8.52;;;2.30;95.80;;;;;;5000896;28;20034;-69
2022/11/18 12:15:11;;;;;;;13.88;9.40;;;2.40;95.80;;;;;;4999025;28;20474;-68
2022/11/18 12:17:39;;;;;;;;;;;2.40;95.70;;;;;;5001704;28;20931;-69
2022/11/18 12:20:50;;;;;;;15.20;8.90;;;2.40;95.70;;;;;;5004675;28;20391;-68
2022/11/18 12:23:20;;;;;;;10.48;7.55;;;2.40;95.40;;;;;;4999181;28;20034;-68
2022/11/18 12:25:48;;;;;;;14.82;8.52;;;2.40;95.60;;;;;;5000215;28;20137;-67
2022/11/18 12:28:36;;;;;;;11.43;7.70;;;2.50;95.60;;;;;;5002551;28;20430;-67
2022/11/18 12:31:32;;;;;;;10.63;7.70;;;2.70;95.60;;;;;;5000743;28;20045;-68
2022/11/18 12:34:02;;;;;;;9.80;6.85;;;2.60;95.20;;;;;;5015124;28;20044;-70
2022/11/18 12:36:35;;;;;;;9.65;6.72;;;2.70;95.20;;;;;;4998816;28;20106;-70
2022/11/18 12:39:29;;;;;;;12.55;8.35;;;2.60;95.10;;;;;;4999895;28;20729;-69
2022/11/18 12:44:44;;;;;;;11.57;7.55;;;2.50;94.40;;;;;;4998175;28;20592;-71
2022/11/18 12:47:37;;;;;;;10.32;7.15;;;2.50;94.50;;;;;;4999847;28;20034;-71
2022/11/18 12:50:14;;;;;;;11.57;7.25;;;2.40;94.50;;;;;;5003805;28;20076;-71
2022/11/18 12:52:41;;;;;;;10.50;6.43;;;2.50;94.50;;;;;;4999918;28;20029;-71
2022/11/18 12:55:17;;;;;;;9.60;6.65;;;2.50;94.60;;;;;;4998847;28;20125;-71
2022/11/18 12:57:44;;;;;;;10.68;7.07;;;2.50;94.60;;;;;;4997438;28;20041;-71
2022/11/18 13:00:22;;;;;;;10.02;6.00;;;2.50;94.20;;;;;;5000296;28;21841;-71
2022/11/18 13:02:57;;;;;;;9.18;6.32;;;2.40;94.00;;;;;;4998807;28;20040;-71
2022/11/18 13:05:27;;;;;;;12.63;7.32;;;2.40;93.90;;;;;;5000987;28;20054;-72
2022/11/18 13:08:11;;;;;;;9.00;5.63;;;2.30;93.70;;;;;;4998244;28;20041;-69
2022/11/18 13:10:43;;;;;;;10.50;6.82;;;2.30;93.90;;;;;;5013958;28;20026;-71
2022/11/18 13:13:29;;;;;;;10.23;6.22;;;2.30;94.10;;;;;;4997603;28;20036;-71